Time;durP1;ratioP1;P1;durP2;ratioP2;P2;SDS_P1;SDS_P2;PMS_P1;PMS_P2;Temp;Humidity;BMP_temperature;BMP_pressure;BME280_temperature;BME280_humidity;BME280_pressure;Samples;Min_cycle;Max_cycle;Signal;HPM_P1;HPM_P2
2023/07/31 00:00:48;;;;;;;3.25;2.80;;;15.40;99.90;;;;;;5082025;28;20395;-84
2023/07/31 00:03:14;;;;;;;5.15;3.08;;;15.40;99.90;;;;;;5071835;28;20046;-85
2023/07/31 00:05:39;;;;;;;3.97;3.05;;;15.40;99.90;;;;;;5084451;28;20055;-85
2023/07/31 00:08:05;;;;;;;4.88;3.00;;;15.40;99.90;;;;;;5050351;28;20068;-85
2023/07/31 00:10:31;;;;;;;5.32;2.80;;;15.50;99.90;;;;;;5082313;28;20048;-85
2023/07/31 00:12:56;;;;;;;4.82;3.03;;;15.50;99.90;;;;;;5070110;28;20129;-85
2023/07/31 00:15:22;;;;;;;4.28;3.22;;;15.40;99.90;;;;;;5085375;28;20547;-86
2023/07/31 00:17:47;;;;;;;4.32;2.88;;;15.40;99.90;;;;;;5082832;28;20047;-86
2023/07/31 00:20:13;;;;;;;3.63;3.13;;;15.40;99.90;;;;;;5075171;28;20036;-85
2023/07/31 00:22:39;;;;;;;4.50;3.53;;;15.40;99.90;;;;;;5075318;28;20052;-86
2023/07/31 00:25:06;;;;;;;3.80;3.00;;;15.40;99.90;;;;;;5077683;28;20120;-85
2023/07/31 00:27:32;;;;;;;4.50;3.33;;;15.40;99.90;;;;;;5063408;28;20047;-86
2023/07/31 00:29:57;;;;;;;5.03;2.97;;;15.40;99.90;;;;;;5076642;28;20045;-85
2023/07/31 00:32:23;;;;;;;3.75;3.00;;;15.30;99.90;;;;;;5068122;28;20119;-85
2023/07/31 00:34:49;;;;;;;3.80;3.10;;;15.60;99.90;;;;;;5066624;28;20044;-86
2023/07/31 00:37:15;;;;;;;4.72;3.28;;;15.30;99.90;;;;;;5077218;28;20052;-86
2023/07/31 00:39:41;;;;;;;3.83;3.20;;;15.30;99.90;;;;;;5083927;28;20127;-86
2023/07/31 00:42:07;;;;;;;3.60;3.00;;;15.30;99.90;;;;;;5050480;28;20055;-86
2023/07/31 00:44:32;;;;;;;4.68;3.00;;;15.30;99.90;;;;;;5070000;28;20130;-87
2023/07/31 00:46:59;;;;;;;4.28;3.15;;;15.30;99.90;;;;;;5076939;28;20079;-85
2023/07/31 00:49:25;;;;;;;3.33;2.53;;;15.30;99.90;;;;;;5071108;28;20101;-88
2023/07/31 00:51:51;;;;;;;2.90;2.60;;;15.20;99.90;;;;;;5084894;28;20043;-87
2023/07/31 00:54:17;;;;;;;3.90;2.50;;;15.20;99.90;;;;;;5075616;28;20764;-86
2023/07/31 00:56:45;;;;;;;4.97;2.83;;;15.20;99.90;;;;;;5080721;28;20041;-87
2023/07/31 00:59:11;;;;;;;3.63;2.88;;;15.30;99.90;;;;;;5069305;28;20036;-85
2023/07/31 01:01:37;;;;;;;3.78;2.45;;;15.20;99.90;;;;;;5085048;28;20082;-87
2023/07/31 01:04:02;;;;;;;4.63;2.28;;;15.20;99.90;;;;;;5054625;28;20048;-89
2023/07/31 01:06:32;;;;;;;5.45;2.50;;;15.10;99.90;;;;;;5057071;28;20044;-91
2023/07/31 01:09:02;;;;;;;3.88;2.08;;;15.20;99.90;;;;;;5062460;28;20048;-90
2023/07/31 01:11:31;;;;;;;4.38;2.17;;;15.20;99.90;;;;;;5074811;28;20044;-90
2023/07/31 01:13:59;;;;;;;3.47;2.17;;;15.10;99.90;;;;;;5072322;28;20051;-90
2023/07/31 01:16:27;;;;;;;2.97;2.10;;;15.10;99.90;;;;;;5067224;28;20055;-90
2023/07/31 01:18:53;;;;;;;3.90;1.92;;;15.10;99.90;;;;;;5069089;28;20044;-88
2023/07/31 01:21:35;;;;;;;3.13;1.92;;;15.00;99.90;;;;;;5067124;28;20040;-90
2023/07/31 01:24:31;;;;;;;1.93;1.60;;;15.00;99.90;;;;;;5072441;28;20037;-90
2023/07/31 01:27:09;;;;;;;2.58;1.85;;;15.10;99.90;;;;;;5078643;28;20333;-89
2023/07/31 01:29:35;;;;;;;1.73;1.63;;;14.80;99.90;;;;;;5072271;28;20471;-88
2023/07/31 01:32:03;;;;;;;1.80;1.58;;;15.20;99.90;;;;;;5068485;28;20047;-88
2023/07/31 01:34:29;;;;;;;2.42;1.52;;;15.00;99.90;;;;;;5054755;28;20051;-86
2023/07/31 01:36:58;;;;;;;1.98;1.48;;;15.20;99.90;;;;;;5078944;28;20599;-87
2023/07/31 01:39:23;;;;;;;1.88;1.55;;;15.10;99.90;;;;;;5088184;28;20036;-87
2023/07/31 01:41:49;;;;;;;1.30;1.20;;;15.20;99.90;;;;;;5053446;28;20047;-88
2023/07/31 01:44:15;;;;;;;1.60;1.15;;;15.30;99.90;;;;;;5083640;28;20036;-87
2023/07/31 01:46:40;;;;;;;2.13;1.27;;;15.70;99.90;;;;;;5071321;28;20052;-88
2023/07/31 01:49:06;;;;;;;1.73;1.42;;;15.10;99.90;;;;;;5054309;28;20044;-86
2023/07/31 01:51:35;;;;;;;2.13;1.30;;;15.10;99.90;;;;;;5053559;28;20033;-87
2023/07/31 01:54:01;;;;;;;1.30;1.20;;;15.10;99.90;;;;;;5070229;28;20055;-87
2023/07/31 01:56:27;;;;;;;1.85;1.27;;;15.10;99.90;;;;;;5078686;28;20513;-88
2023/07/31 01:58:53;;;;;;;1.60;1.40;;;15.20;99.90;;;;;;5069687;28;20041;-86
2023/07/31 02:01:18;;;;;;;1.42;1.33;;;15.10;99.90;;;;;;5069534;28;20041;-86
2023/07/31 02:03:44;;;;;;;3.13;1.30;;;15.40;99.90;;;;;;5063221;28;20047;-86
2023/07/31 02:06:09;;;;;;;1.92;1.40;;;15.20;99.90;;;;;;5076567;28;20063;-86
2023/07/31 02:08:35;;;;;;;1.70;1.45;;;14.90;99.90;;;;;;5073126;28;20490;-87
2023/07/31 02:11:01;;;;;;;3.47;1.40;;;15.20;99.90;;;;;;5079375;28;20049;-86
2023/07/31 02:13:26;;;;;;;1.27;1.17;;;15.20;99.90;;;;;;5080087;28;20135;-87
2023/07/31 02:15:52;;;;;;;2.70;1.42;;;15.20;99.90;;;;;;5059027;28;20490;-86
2023/07/31 02:18:18;;;;;;;1.80;1.23;;;15.20;99.90;;;;;;5069725;28;20082;-86
2023/07/31 02:20:46;;;;;;;2.25;1.10;;;15.20;99.90;;;;;;5066067;28;20043;-86
2023/07/31 02:23:12;;;;;;;2.85;1.00;;;15.20;99.90;;;;;;5070346;28;20076;-86
2023/07/31 02:25:39;;;;;;;1.73;1.25;;;15.20;99.90;;;;;;5071497;28;20102;-87
2023/07/31 02:28:04;;;;;;;1.17;1.08;;;15.30;99.90;;;;;;5072216;28;20037;-87
2023/07/31 02:30:30;;;;;;;1.20;1.10;;;15.50;99.90;;;;;;5054120;28;20418;-87
2023/07/31 02:32:56;;;;;;;1.20;1.10;;;15.30;99.90;;;;;;5071267;28;20045;-89
2023/07/31 02:35:21;;;;;;;0.80;0.70;;;15.30;99.90;;;;;;5070716;28;20040;-88
2023/07/31 02:37:47;;;;;;;1.13;1.00;;;15.30;99.90;;;;;;5053750;28;20041;-87
2023/07/31 02:40:13;;;;;;;1.15;1.05;;;15.30;99.90;;;;;;5067695;28;20882;-88
2023/07/31 02:42:38;;;;;;;1.33;1.05;;;15.30;99.90;;;;;;5055005;28;20131;-87
2023/07/31 02:45:04;;;;;;;1.40;1.30;;;15.40;99.90;;;;;;5083562;28;20509;-89
2023/07/31 02:47:30;;;;;;;1.40;1.30;;;15.30;99.90;;;;;;5070740;28;20128;-87
2023/07/31 02:49:56;;;;;;;1.55;1.33;;;15.60;99.90;;;;;;5054274;28;20930;-87
2023/07/31 02:52:21;;;;;;;1.20;1.05;;;15.70;99.90;;;;;;5078545;28;20056;-86
2023/07/31 02:54:47;;;;;;;2.85;1.23;;;15.80;99.90;;;;;;5071386;28;20040;-87
2023/07/31 02:57:12;;;;;;;1.20;1.10;;;15.40;99.90;;;;;;5056138;28;20036;-86
2023/07/31 02:59:38;;;;;;;1.45;1.35;;;15.40;99.90;;;;;;5052854;28;20402;-86
2023/07/31 03:02:04;;;;;;;2.35;1.20;;;15.40;99.90;;;;;;5060762;28;20044;-87
2023/07/31 03:04:29;;;;;;;2.13;1.20;;;16.00;99.90;;;;;;5072608;28;20067;-86
2023/07/31 03:06:55;;;;;;;1.45;1.30;;;15.40;99.90;;;;;;5060154;28;20048;-87
2023/07/31 03:09:22;;;;;;;2.50;1.45;;;15.50;99.90;;;;;;5071010;28;20047;-87
2023/07/31 03:11:48;;;;;;;2.13;1.70;;;15.50;99.90;;;;;;5063038;28;20052;-87
2023/07/31 03:14:13;;;;;;;1.70;1.50;;;15.50;99.90;;;;;;5052859;28;20045;-87
2023/07/31 03:16:39;;;;;;;2.13;1.80;;;15.70;99.90;;;;;;5067786;28;20040;-87
2023/07/31 03:19:05;;;;;;;2.13;1.63;;;15.50;99.90;;;;;;5056083;28;20347;-87
2023/07/31 03:21:30;;;;;;;2.30;1.60;;;15.50;99.90;;;;;;5065209;28;20062;-86
2023/07/31 03:23:56;;;;;;;1.92;1.80;;;15.80;99.90;;;;;;5080260;28;20045;-87
2023/07/31 03:26:21;;;;;;;2.00;1.90;;;15.50;99.90;;;;;;5056499;28;20090;-86
2023/07/31 03:28:47;;;;;;;2.70;2.10;;;15.50;99.90;;;;;;5052567;28;20447;-88
2023/07/31 03:31:13;;;;;;;2.25;1.80;;;15.50;99.90;;;;;;5081831;28;20144;-87
2023/07/31 03:33:38;;;;;;;2.88;2.05;;;16.00;99.90;;;;;;5054507;28;20127;-86
2023/07/31 03:36:04;;;;;;;1.83;1.73;;;15.70;99.90;;;;;;5063621;28;20755;-86
2023/07/31 03:38:30;;;;;;;2.17;1.98;;;15.60;99.90;;;;;;5086551;28;20167;-86
2023/07/31 03:40:55;;;;;;;3.55;1.92;;;15.50;99.90;;;;;;5069830;28;20052;-87
2023/07/31 03:43:21;;;;;;;3.13;1.95;;;16.10;99.90;;;;;;5083531;28;20095;-87
2023/07/31 03:45:47;;;;;;;2.00;1.90;;;15.70;99.90;;;;;;5076456;28;20052;-88
2023/07/31 03:48:14;;;;;;;2.42;2.10;;;15.70;99.90;;;;;;5076163;28;20747;-88
2023/07/31 03:50:40;;;;;;;2.78;1.77;;;15.70;99.90;;;;;;5067418;28;20425;-88
2023/07/31 03:53:05;;;;;;;4.95;2.25;;;15.70;99.90;;;;;;5051845;28;20089;-87
2023/07/31 03:55:31;;;;;;;3.63;2.47;;;16.10;99.90;;;;;;5068609;28;20566;-88
2023/07/31 03:57:57;;;;;;;2.42;2.20;;;15.80;99.90;;;;;;5069297;28;20048;-86
2023/07/31 04:00:22;;;;;;;2.88;1.92;;;15.90;99.90;;;;;;5068479;28;20045;-89
2023/07/31 04:02:48;;;;;;;2.88;2.05;;;15.80;99.90;;;;;;5077124;28;20049;-88
2023/07/31 04:05:16;;;;;;;3.22;1.98;;;15.80;99.90;;;;;;5067721;28;20048;-85
2023/07/31 04:07:42;;;;;;;12.98;2.60;;;15.60;99.90;;;;;;5060187;28;20375;-84
2023/07/31 04:10:07;;;;;;;4.97;1.70;;;15.80;99.90;;;;;;5066620;28;20068;-84
2023/07/31 04:12:33;;;;;;;3.63;1.70;;;15.90;99.90;;;;;;5087129;28;20426;-84
2023/07/31 04:14:59;;;;;;;3.15;1.42;;;15.80;99.90;;;;;;5067012;28;20091;-84
2023/07/31 04:17:24;;;;;;;1.40;1.30;;;15.80;99.90;;;;;;5078577;28;20613;-85
2023/07/31 04:19:52;;;;;;;2.03;1.67;;;16.30;99.90;;;;;;5069192;28;20044;-86
2023/07/31 04:22:18;;;;;;;2.33;1.50;;;15.80;99.90;;;;;;5091615;28;20544;-85
2023/07/31 04:24:44;;;;;;;3.60;1.30;;;15.80;99.90;;;;;;5067602;28;20064;-85
2023/07/31 04:27:09;;;;;;;3.53;1.70;;;15.90;99.90;;;;;;5070063;28;20044;-85
2023/07/31 04:29:35;;;;;;;5.85;1.83;;;15.90;99.90;;;;;;5067661;28;20044;-85
2023/07/31 04:32:00;;;;;;;6.13;2.22;;;15.80;99.90;;;;;;5076760;28;20029;-86
2023/07/31 04:34:26;;;;;;;6.35;2.47;;;15.90;99.90;;;;;;5066843;28;20040;-85
2023/07/31 04:36:52;;;;;;;6.43;3.13;;;16.00;99.90;;;;;;5060809;28;20712;-85
2023/07/31 04:39:17;;;;;;;5.25;2.70;;;15.90;99.90;;;;;;5086497;28;20052;-85
2023/07/31 04:41:43;;;;;;;10.25;3.42;;;16.00;99.90;;;;;;5055087;28;20083;-85
2023/07/31 04:44:11;;;;;;;8.63;3.38;;;16.50;99.90;;;;;;5056263;28;20135;-84
2023/07/31 04:46:37;;;;;;;8.75;3.67;;;16.00;99.90;;;;;;5071202;28;20502;-86
2023/07/31 04:49:03;;;;;;;9.07;3.70;;;16.00;99.90;;;;;;5052880;28;20494;-86
2023/07/31 04:51:28;;;;;;;11.52;4.30;;;16.00;99.90;;;;;;5067614;28;20193;-85
2023/07/31 04:53:56;;;;;;;7.95;3.60;;;16.10;99.90;;;;;;5050565;28;20103;-85
2023/07/31 04:56:25;;;;;;;17.25;4.45;;;16.00;99.90;;;;;;5066013;28;20048;-85
2023/07/31 04:58:53;;;;;;;8.90;4.20;;;16.10;99.90;;;;;;5068209;28;20044;-86
2023/07/31 05:01:18;;;;;;;11.95;4.38;;;16.10;99.90;;;;;;5049506;28;20169;-84
2023/07/31 05:03:44;;;;;;;8.50;4.15;;;16.20;99.90;;;;;;5073979;28;20505;-85
2023/07/31 05:06:10;;;;;;;12.10;4.35;;;16.10;99.90;;;;;;5063530;28;20067;-84
2023/07/31 05:08:35;;;;;;;9.88;4.82;;;16.10;99.90;;;;;;5066952;28;20044;-85
2023/07/31 05:11:01;;;;;;;14.68;5.03;;;16.20;99.90;;;;;;5061157;28;20177;-85
2023/07/31 05:13:27;;;;;;;16.02;5.25;;;16.20;99.90;;;;;;5061462;28;20478;-85
2023/07/31 05:15:55;;;;;;;12.68;4.90;;;16.20;99.90;;;;;;5070211;28;20041;-84
2023/07/31 05:18:21;;;;;;;18.95;5.85;;;16.20;99.90;;;;;;5080349;28;20081;-86
2023/07/31 05:20:47;;;;;;;22.98;6.30;;;16.20;99.90;;;;;;5070840;28;20044;-85
2023/07/31 05:23:12;;;;;;;16.30;5.82;;;16.20;99.90;;;;;;5070386;28;20466;-86
2023/07/31 05:25:38;;;;;;;17.45;6.18;;;16.20;99.90;;;;;;5098013;28;20438;-86
2023/07/31 05:28:04;;;;;;;18.70;6.28;;;16.20;99.90;;;;;;5070659;28;20445;-85
2023/07/31 05:30:32;;;;;;;21.25;6.80;;;16.20;99.90;;;;;;5059975;28;20608;-85
2023/07/31 05:32:58;;;;;;;17.30;6.57;;;16.20;99.90;;;;;;5068024;28;20051;-86
2023/07/31 05:35:23;;;;;;;20.92;7.07;;;16.20;99.90;;;;;;5089863;28;20044;-86
2023/07/31 05:37:49;;;;;;;20.65;7.43;;;16.50;99.90;;;;;;5072777;28;20699;-86
2023/07/31 05:40:15;;;;;;;21.95;7.13;;;16.30;99.90;;;;;;5090024;28;20040;-86
2023/07/31 05:42:40;;;;;;;22.35;6.93;;;16.30;99.90;;;;;;5071045;28;20044;-84
2023/07/31 05:45:07;;;;;;;23.95;7.35;;;16.30;99.90;;;;;;5089969;28;20052;-84
2023/07/31 05:47:33;;;;;;;23.83;7.40;;;16.30;99.90;;;;;;5088546;28;20056;-85
2023/07/31 05:49:58;;;;;;;21.13;6.95;;;16.70;99.90;;;;;;5089269;28;20044;-85
2023/07/31 05:52:24;;;;;;;21.35;7.38;;;16.30;99.90;;;;;;5071210;28;20130;-84
2023/07/31 05:54:50;;;;;;;19.83;7.70;;;16.30;99.90;;;;;;5089660;28;20040;-84
2023/07/31 05:57:16;;;;;;;19.38;7.72;;;16.40;99.90;;;;;;5090007;28;20046;-84
2023/07/31 05:59:41;;;;;;;17.48;7.07;;;16.40;99.90;;;;;;5089384;28;20414;-84
2023/07/31 06:02:07;;;;;;;17.73;7.40;;;16.70;99.90;;;;;;5078475;28;20565;-83
2023/07/31 06:04:33;;;;;;;14.93;7.22;;;16.40;99.90;;;;;;5052273;28;20040;-83
2023/07/31 06:06:58;;;;;;;19.77;7.43;;;16.40;99.90;;;;;;5069089;28;20063;-84
2023/07/31 06:09:25;;;;;;;18.42;6.88;;;16.50;99.90;;;;;;5060631;28;20068;-83
2023/07/31 06:11:51;;;;;;;16.08;6.35;;;16.40;99.90;;;;;;5089753;28;20173;-87
2023/07/31 06:14:17;;;;;;;26.02;7.70;;;16.40;99.90;;;;;;5069515;28;20524;-86
2023/07/31 06:16:44;;;;;;;22.77;7.15;;;16.40;99.90;;;;;;5074503;28;20390;-88
2023/07/31 06:19:09;;;;;;;20.52;7.43;;;16.40;99.90;;;;;;5087420;28;20052;-86
2023/07/31 06:21:37;;;;;;;21.50;8.13;;;16.40;99.90;;;;;;5073072;28;20113;-85
2023/07/31 06:24:03;;;;;;;21.15;8.20;;;16.50;99.90;;;;;;5072187;28;20092;-85
2023/07/31 06:26:29;;;;;;;20.40;8.65;;;16.50;99.90;;;;;;5090016;28;20066;-84
2023/07/31 06:28:54;;;;;;;19.92;8.27;;;16.50;99.90;;;;;;5069771;28;20644;-84
2023/07/31 06:31:22;;;;;;;24.95;8.05;;;16.50;99.90;;;;;;5071991;28;20055;-85
2023/07/31 06:33:49;;;;;;;23.88;8.38;;;16.50;99.90;;;;;;5088592;28;20203;-85
2023/07/31 06:36:14;;;;;;;21.63;8.43;;;16.50;99.90;;;;;;5089737;28;20040;-85
2023/07/31 06:38:40;;;;;;;18.23;7.47;;;16.50;99.90;;;;;;5087143;28;20051;-84
2023/07/31 06:41:06;;;;;;;18.08;7.15;;;16.60;99.90;;;;;;5068809;28;20486;-85
2023/07/31 06:43:31;;;;;;;19.60;7.60;;;16.80;99.90;;;;;;5069141;28;20169;-84
2023/07/31 06:45:57;;;;;;;19.65;8.15;;;16.60;99.90;;;;;;5068780;28;20113;-85
2023/07/31 06:48:23;;;;;;;21.30;9.00;;;16.60;99.90;;;;;;5069061;28;20525;-85
2023/07/31 06:50:48;;;;;;;22.23;8.68;;;16.60;99.90;;;;;;5051461;28;20041;-85
2023/07/31 06:53:14;;;;;;;19.13;8.05;;;16.70;99.90;;;;;;5059874;28;20039;-84
2023/07/31 06:55:39;;;;;;;22.13;8.68;;;16.60;99.90;;;;;;5061845;28;20044;-84
2023/07/31 06:58:05;;;;;;;17.40;8.50;;;16.60;99.90;;;;;;5071895;28;20040;-85
2023/07/31 07:00:32;;;;;;;16.83;7.75;;;17.10;99.90;;;;;;5071770;28;20482;-83
2023/07/31 07:02:57;;;;;;;19.08;7.28;;;16.60;99.90;;;;;;5071675;28;20036;-87
2023/07/31 07:05:23;;;;;;;14.30;6.70;;;16.50;99.90;;;;;;5056235;28;20097;-87
2023/07/31 07:07:50;;;;;;;17.23;7.07;;;16.60;99.90;;;;;;5068719;28;20048;-91
2023/07/31 07:10:16;;;;;;;14.32;6.50;;;16.70;99.90;;;;;;5068614;28;20053;-86
2023/07/31 07:12:41;;;;;;;11.38;6.13;;;16.60;99.90;;;;;;5068056;28;20485;-88
2023/07/31 07:15:08;;;;;;;12.25;5.60;;;16.60;99.90;;;;;;5068360;28;20033;-88
2023/07/31 07:17:34;;;;;;;12.32;5.85;;;16.60;99.90;;;;;;5051766;28;20055;-86
2023/07/31 07:20:00;;;;;;;9.88;5.50;;;16.60;99.90;;;;;;5052478;28;20044;-84
2023/07/31 07:22:26;;;;;;;14.40;5.47;;;16.60;99.90;;;;;;5082602;28;20398;-86
2023/07/31 07:24:52;;;;;;;10.57;6.00;;;16.50;99.90;;;;;;5071002;28;20047;-86
2023/07/31 07:27:18;;;;;;;11.55;6.03;;;16.50;99.90;;;;;;5088258;28;20047;-88
2023/07/31 07:29:45;;;;;;;12.32;5.78;;;16.60;99.90;;;;;;5067658;28;20197;-85
2023/07/31 07:32:11;;;;;;;9.00;5.00;;;16.70;99.90;;;;;;5068493;28;20487;-85
2023/07/31 07:34:37;;;;;;;10.90;5.45;;;16.70;99.90;;;;;;5067638;28;20048;-85
2023/07/31 07:37:03;;;;;;;7.53;4.47;;;16.80;99.90;;;;;;5083604;28;20163;-83
2023/07/31 07:39:29;;;;;;;11.52;4.50;;;16.90;99.90;;;;;;5088685;28;20044;-86
2023/07/31 07:41:54;;;;;;;7.90;4.32;;;17.40;99.90;;;;;;5088567;28;20040;-86
2023/07/31 07:44:20;;;;;;;6.57;3.88;;;16.90;99.90;;;;;;5069405;28;20056;-87
2023/07/31 07:46:46;;;;;;;6.47;3.70;;;17.10;99.90;;;;;;5087643;28;21146;-86
2023/07/31 07:49:12;;;;;;;7.00;3.92;;;17.00;99.90;;;;;;5065817;28;20457;-86
2023/07/31 07:51:37;;;;;;;7.55;4.47;;;17.00;99.90;;;;;;5078990;28;20068;-85
2023/07/31 07:54:03;;;;;;;6.15;3.47;;;17.50;99.90;;;;;;5071517;28;20045;-84
2023/07/31 07:56:29;;;;;;;5.32;3.30;;;17.60;99.90;;;;;;5067766;28;20076;-85
2023/07/31 07:58:54;;;;;;;4.55;2.83;;;17.50;99.90;;;;;;5087543;28;20045;-83
2023/07/31 08:01:20;;;;;;;4.70;3.10;;;17.20;99.90;;;;;;5067807;28;20514;-83
2023/07/31 08:03:47;;;;;;;5.63;3.25;;;17.20;99.90;;;;;;5066945;28;20427;-86
2023/07/31 08:06:12;;;;;;;5.93;3.45;;;17.20;99.90;;;;;;5054960;28;20146;-84
2023/07/31 08:08:38;;;;;;;5.03;3.15;;;17.20;99.90;;;;;;5086048;28;20036;-84
2023/07/31 08:11:04;;;;;;;4.03;2.80;;;17.10;99.90;;;;;;5080603;28;20040;-84
2023/07/31 08:13:30;;;;;;;4.32;2.65;;;17.10;99.90;;;;;;5071569;28;20032;-85
2023/07/31 08:15:56;;;;;;;3.85;2.67;;;17.10;99.90;;;;;;5073033;28;20047;-85
2023/07/31 08:18:22;;;;;;;4.32;2.53;;;17.10;99.90;;;;;;5049721;28;20523;-84
2023/07/31 08:20:47;;;;;;;5.25;3.05;;;17.20;99.90;;;;;;5069696;28;20385;-83
2023/07/31 08:23:13;;;;;;;3.15;2.30;;;17.20;99.90;;;;;;5086580;28;20055;-82
2023/07/31 08:25:39;;;;;;;8.90;2.50;;;17.50;99.90;;;;;;5082646;28;20083;-84
2023/07/31 08:28:05;;;;;;;3.33;2.30;;;17.30;99.90;;;;;;5073181;28;20044;-83
2023/07/31 08:30:31;;;;;;;2.97;2.30;;;17.40;99.90;;;;;;5066993;28;20079;-83
2023/07/31 08:32:57;;;;;;;4.30;2.40;;;17.50;99.90;;;;;;5068709;28;20059;-83
2023/07/31 08:35:24;;;;;;;3.67;2.22;;;17.50;99.90;;;;;;5074204;28;20065;-83
2023/07/31 08:37:50;;;;;;;4.65;2.25;;;17.60;99.90;;;;;;5054089;28;20162;-84
2023/07/31 08:40:16;;;;;;;3.45;2.22;;;17.40;99.90;;;;;;5086274;28;20162;-83
2023/07/31 08:42:49;;;;;;;3.90;2.22;;;17.40;99.90;;;;;;5085904;28;20047;-82
2023/07/31 08:45:16;;;;;;;3.50;2.72;;;17.50;99.90;;;;;;5050554;28;20068;-83
2023/07/31 08:47:50;;;;;;;3.60;2.55;;;17.50;99.90;;;;;;5049515;28;20049;-82
2023/07/31 08:50:20;;;;;;;2.45;2.20;;;17.50;99.90;;;;;;5066373;28;20052;-83
2023/07/31 08:52:47;;;;;;;2.90;2.50;;;17.60;99.90;;;;;;5066079;28;20037;-83
2023/07/31 08:55:13;;;;;;;3.10;2.33;;;17.60;99.90;;;;;;5062864;28;20040;-83
2023/07/31 08:57:39;;;;;;;3.55;2.50;;;17.90;99.90;;;;;;5085494;28;20055;-83
2023/07/31 09:00:08;;;;;;;2.75;2.10;;;17.60;99.90;;;;;;5084801;28;20040;-83
2023/07/31 09:02:59;;;;;;;2.13;1.92;;;17.50;99.90;;;;;;5059711;28;20098;-84
2023/07/31 09:05:27;;;;;;;2.20;2.00;;;17.60;99.90;;;;;;5076142;28;20440;-83
2023/07/31 09:07:55;;;;;;;2.42;1.77;;;17.60;99.90;;;;;;5053732;28;20043;-82
2023/07/31 09:10:20;;;;;;;2.25;1.98;;;18.00;99.90;;;;;;5067986;28;20052;-82
2023/07/31 09:12:47;;;;;;;2.03;1.50;;;17.70;99.90;;;;;;5086117;28;20044;-84
2023/07/31 09:15:13;;;;;;;1.60;1.50;;;17.80;99.90;;;;;;5084307;28;20055;-84
2023/07/31 09:17:38;;;;;;;1.90;1.30;;;17.80;99.90;;;;;;5085931;28;20056;-80
2023/07/31 09:20:14;;;;;;;1.55;1.40;;;17.90;99.90;;;;;;5086233;28;20040;-82
2023/07/31 09:22:40;;;;;;;1.75;1.40;;;17.90;99.90;;;;;;5084834;28;20104;-82
2023/07/31 09:25:20;;;;;;;1.55;1.33;;;17.90;99.90;;;;;;5058440;28;20044;-82
2023/07/31 09:27:58;;;;;;;1.92;1.40;;;18.00;99.90;;;;;;5077346;28;20048;-84
2023/07/31 09:30:24;;;;;;;1.40;1.30;;;18.10;99.90;;;;;;5085089;28;20455;-80
2023/07/31 09:32:51;;;;;;;1.20;1.10;;;18.00;99.90;;;;;;5079027;28;20049;-83
2023/07/31 09:35:20;;;;;;;1.10;1.00;;;18.00;99.90;;;;;;5067982;28;20044;-83
2023/07/31 09:37:50;;;;;;;1.30;1.10;;;18.00;99.90;;;;;;5077253;28;20048;-83
2023/07/31 09:40:33;;;;;;;1.20;1.10;;;18.10;99.90;;;;;;5064925;28;20066;-81
2023/07/31 09:43:01;;;;;;;0.93;0.93;;;18.20;99.90;;;;;;5082388;28;20033;-83
2023/07/31 09:45:28;;;;;;;1.10;0.90;;;18.80;99.90;;;;;;5084729;28;20067;-83
2023/07/31 09:47:54;;;;;;;1.15;1.05;;;18.40;99.90;;;;;;5085883;28;20441;-83
2023/07/31 09:50:22;;;;;;;1.35;1.13;;;18.40;99.90;;;;;;5084005;28;20036;-82
2023/07/31 09:52:48;;;;;;;2.72;1.17;;;18.50;99.90;;;;;;5086111;28;20044;-85
2023/07/31 09:55:13;;;;;;;3.53;1.60;;;19.00;99.90;;;;;;5072302;28;20036;-83
2023/07/31 09:57:44;;;;;;;2.67;1.10;;;18.70;99.90;;;;;;5087066;28;20048;-83
2023/07/31 10:00:11;;;;;;;1.67;1.20;;;18.70;99.90;;;;;;5081331;28;20489;-81
2023/07/31 10:02:37;;;;;;;2.63;1.30;;;18.80;99.90;;;;;;5089478;28;20116;-82
2023/07/31 10:05:04;;;;;;;1.40;1.10;;;18.80;99.90;;;;;;5089103;28;20131;-82
2023/07/31 10:07:35;;;;;;;1.20;1.10;;;18.80;99.90;;;;;;5068067;28;20560;-82
2023/07/31 10:10:03;;;;;;;1.50;1.40;;;19.10;99.90;;;;;;5073539;28;20056;-83
2023/07/31 10:12:31;;;;;;;1.08;1.08;;;18.90;99.90;;;;;;5079060;28;20504;-83
2023/07/31 10:14:57;;;;;;;1.30;1.20;;;18.90;99.90;;;;;;5074955;28;20502;-82
2023/07/31 10:17:23;;;;;;;1.83;1.38;;;18.90;99.90;;;;;;5078706;28;20151;-83
2023/07/31 10:19:50;;;;;;;1.70;1.60;;;19.00;99.90;;;;;;5066804;28;20419;-83
2023/07/31 10:22:16;;;;;;;1.30;1.20;;;18.60;99.90;;;;;;5074404;28;20073;-82
2023/07/31 10:24:43;;;;;;;1.77;1.25;;;19.30;99.90;;;;;;5071400;28;20482;-82
2023/07/31 10:27:10;;;;;;;1.20;1.10;;;19.00;99.90;;;;;;5068869;28;20045;-81
2023/07/31 10:29:37;;;;;;;1.30;1.20;;;18.90;99.90;;;;;;5088148;28;20094;-83
2023/07/31 10:32:06;;;;;;;1.50;1.40;;;19.00;99.90;;;;;;5080850;28;20076;-83
2023/07/31 10:34:36;;;;;;;1.38;1.27;;;19.00;99.90;;;;;;5070693;28;20387;-82
2023/07/31 10:37:25;;;;;;;1.35;1.25;;;18.90;99.90;;;;;;5088220;28;20818;-82
2023/07/31 10:40:05;;;;;;;1.42;1.33;;;19.00;99.90;;;;;;5057257;28;20448;-82
2023/07/31 10:42:44;;;;;;;1.98;1.30;;;19.10;99.90;;;;;;5068227;28;20047;-82
2023/07/31 10:45:10;;;;;;;1.30;1.20;;;19.20;99.90;;;;;;5068346;28;20131;-82
2023/07/31 10:47:43;;;;;;;1.30;1.20;;;19.30;99.90;;;;;;5052294;28;20466;-83
2023/07/31 10:50:23;;;;;;;1.98;1.17;;;19.40;99.90;;;;;;5069785;28;20099;-82
2023/07/31 10:52:51;;;;;;;2.30;1.27;;;19.60;99.90;;;;;;5072216;28;20048;-83
2023/07/31 10:55:41;;;;;;;0.80;0.80;;;19.60;99.90;;;;;;5075927;28;20518;-85
2023/07/31 10:58:11;;;;;;;1.67;0.80;;;19.50;99.90;;;;;;5068728;28;20406;-85
2023/07/31 11:00:39;;;;;;;1.05;0.98;;;19.40;99.90;;;;;;5069638;28;20048;-86
2023/07/31 11:03:06;;;;;;;1.20;1.10;;;19.30;99.90;;;;;;5076537;28;20657;-83
2023/07/31 11:05:45;;;;;;;1.30;0.95;;;19.30;99.90;;;;;;5075536;28;20094;-83
2023/07/31 11:08:16;;;;;;;0.90;0.90;;;19.30;99.90;;;;;;5071153;28;20069;-85
2023/07/31 11:10:46;;;;;;;1.17;1.17;;;19.80;99.90;;;;;;5071263;28;20050;-84
2023/07/31 11:13:12;;;;;;;1.75;1.00;;;19.20;99.90;;;;;;5087985;28;20040;-83
2023/07/31 11:15:40;;;;;;;1.02;0.90;;;19.40;99.90;;;;;;5087243;28;20040;-82
2023/07/31 11:18:07;;;;;;;0.80;0.80;;;19.40;99.90;;;;;;5085355;28;20066;-83
2023/07/31 11:20:38;;;;;;;0.60;0.60;;;20.00;99.90;;;;;;5051296;28;20044;-83
2023/07/31 11:23:07;;;;;;;0.63;0.63;;;19.70;99.90;;;;;;5067244;28;20083;-83
2023/07/31 11:25:33;;;;;;;0.60;0.60;;;19.70;99.90;;;;;;5067766;28;20044;-83
2023/07/31 11:28:13;;;;;;;0.50;0.50;;;20.30;99.90;;;;;;5086798;28;20567;-82
2023/07/31 11:30:43;;;;;;;0.93;0.68;;;19.90;99.90;;;;;;5069309;28;21306;-82
2023/07/31 11:33:11;;;;;;;1.13;0.47;;;20.00;99.90;;;;;;5086603;28;20040;-81
2023/07/31 11:35:41;;;;;;;0.63;0.55;;;20.00;99.90;;;;;;5069065;28;20036;-83
2023/07/31 11:38:08;;;;;;;0.73;0.55;;;20.20;99.90;;;;;;5087814;28;20044;-82
2023/07/31 11:40:42;;;;;;;0.50;0.50;;;20.80;99.90;;;;;;5053263;28;20045;-82
2023/07/31 11:43:07;;;;;;;0.50;0.50;;;20.60;99.90;;;;;;5076536;28;20055;-82
2023/07/31 11:45:35;;;;;;;0.70;0.60;;;20.30;99.90;;;;;;5082909;28;20044;-83
2023/07/31 11:48:00;;;;;;;0.77;0.60;;;20.30;99.90;;;;;;5050340;28;20364;-81
2023/07/31 11:50:27;;;;;;;1.20;0.70;;;20.20;99.90;;;;;;5083755;28;20044;-82
2023/07/31 11:52:58;;;;;;;2.03;0.70;;;20.30;99.90;;;;;;5089462;28;20098;-82
2023/07/31 11:55:24;;;;;;;1.90;0.70;;;19.80;99.90;;;;;;5087538;28;20410;-82
2023/07/31 11:57:50;;;;;;;1.48;0.90;;;20.30;99.90;;;;;;5087378;28;20048;-82
2023/07/31 12:00:17;;;;;;;2.35;1.02;;;20.30;99.90;;;;;;5087899;28;20044;-82
2023/07/31 12:02:43;;;;;;;1.48;1.38;;;20.50;99.90;;;;;;5064803;28;20044;-82
2023/07/31 12:05:13;;;;;;;3.08;1.60;;;20.70;99.90;;;;;;5069908;28;20048;-81
2023/07/31 12:07:53;;;;;;;3.10;1.60;;;21.00;99.90;;;;;;5066442;28;20037;-82
2023/07/31 12:10:32;;;;;;;2.78;1.73;;;20.80;99.90;;;;;;5049814;28;20414;-82
2023/07/31 12:13:06;;;;;;;2.15;1.38;;;20.90;99.90;;;;;;5067012;28;20073;-83
2023/07/31 12:15:31;;;;;;;2.28;1.25;;;20.50;99.90;;;;;;5067332;28;20041;-82
2023/07/31 12:17:57;;;;;;;2.08;1.30;;;20.50;99.90;;;;;;5066892;28;20052;-83
2023/07/31 12:20:23;;;;;;;1.42;1.05;;;20.70;99.90;;;;;;5066492;28;20045;-85
2023/07/31 12:22:48;;;;;;;2.90;1.30;;;20.50;99.90;;;;;;5066894;28;20040;-86
2023/07/31 12:25:17;;;;;;;1.92;1.13;;;20.70;99.90;;;;;;5049461;28;20131;-83
2023/07/31 12:27:46;;;;;;;1.40;0.90;;;20.50;99.90;;;;;;5050106;28;20041;-85
2023/07/31 12:30:35;;;;;;;2.35;0.90;;;20.40;99.90;;;;;;5066204;28;20058;-85
2023/07/31 12:33:14;;;;;;;1.45;0.90;;;20.30;99.90;;;;;;5066577;28;20471;-87
2023/07/31 12:35:47;;;;;;;2.88;1.08;;;20.10;99.90;;;;;;5067123;28;20127;-86
2023/07/31 12:38:14;;;;;;;1.60;0.90;;;19.90;99.90;;;;;;5067012;28;20055;-86
2023/07/31 12:40:41;;;;;;;1.77;1.17;;;19.80;99.90;;;;;;5050020;28;20091;-85
2023/07/31 12:43:07;;;;;;;1.80;1.20;;;19.70;99.90;;;;;;5067017;28;20041;-86
2023/07/31 12:45:33;;;;;;;3.75;1.42;;;19.90;99.90;;;;;;5067201;28;20122;-84